createdAt,value
2023-02-11T00:00:42.563Z,24.30
2023-02-11T00:03:09.753Z,24.88
2023-02-11T00:05:36.504Z,25.63
2023-02-11T00:08:03.236Z,24.10
2023-02-11T00:10:29.810Z,25.25
2023-02-11T00:12:56.616Z,24.75
2023-02-11T00:15:23.293Z,25.05
2023-02-11T00:17:49.908Z,25.45
2023-02-11T00:20:16.615Z,25.40
2023-02-11T00:22:43.789Z,24.05
2023-02-11T00:25:10.428Z,23.95
2023-02-11T00:27:37.548Z,24.58
2023-02-11T00:30:05.422Z,23.63
2023-02-11T00:32:32.505Z,24.48
2023-02-11T00:34:59.077Z,24.67
2023-02-11T00:37:25.677Z,25.80
2023-02-11T00:39:52.308Z,24.35
2023-02-11T00:42:18.940Z,23.67
2023-02-11T00:44:45.684Z,25.70
2023-02-11T00:47:12.370Z,25.15
2023-02-11T00:49:40.636Z,25.17
2023-02-11T00:52:07.527Z,24.50
2023-02-11T00:54:34.565Z,24.33
2023-02-11T00:57:01.220Z,23.98
2023-02-11T00:59:28.292Z,24.65
2023-02-11T01:01:54.874Z,25.73
2023-02-11T01:04:21.519Z,24.48
2023-02-11T01:06:48.142Z,25.38
2023-02-11T01:09:14.773Z,24.67
2023-02-11T01:11:41.378Z,25.80
2023-02-11T01:14:08.206Z,24.48
2023-02-11T01:16:34.789Z,26.13
2023-02-11T01:19:01.470Z,26.15
2023-02-11T01:21:28.130Z,25.55
2023-02-11T01:23:54.816Z,25.88
2023-02-11T01:26:21.402Z,26.05
2023-02-11T01:28:48.146Z,25.17
2023-02-11T01:31:14.830Z,26.38
2023-02-11T01:33:41.682Z,26.27
2023-02-11T01:36:09.050Z,26.08
2023-02-11T01:38:36.684Z,24.92
2023-02-11T01:41:06.829Z,25.83
2023-02-11T01:43:39.887Z,26.15
2023-02-11T01:46:29.210Z,25.98
2023-02-11T01:49:12.301Z,23.80
2023-02-11T01:51:46.806Z,25.23
2023-02-11T01:54:35.576Z,25.50
2023-02-11T01:57:22.251Z,24.70
2023-02-11T02:00:01.421Z,25.58
2023-02-11T02:02:37.434Z,25.45
2023-02-11T02:05:26.831Z,26.00
2023-02-11T02:08:15.776Z,24.90
2023-02-11T02:10:45.598Z,24.67
2023-02-11T02:13:13.224Z,25.17
2023-02-11T02:16:01.353Z,24.75
2023-02-11T02:18:52.930Z,24.25
2023-02-11T02:21:50.463Z,22.85
2023-02-11T02:24:32.791Z,22.88
2023-02-11T02:27:19.909Z,25.45
2023-02-11T02:29:59.017Z,24.80
2023-02-11T02:33:16.661Z,25.60
2023-02-11T02:35:53.901Z,23.30
2023-02-11T02:38:45.190Z,22.08
2023-02-11T02:41:22.341Z,21.83
2023-02-11T02:43:50.555Z,24.10
2023-02-11T02:46:21.242Z,24.08
2023-02-11T02:48:49.859Z,24.42
2023-02-11T02:51:45.428Z,23.42
2023-02-11T02:54:53.428Z,23.95
2023-02-11T02:57:38.506Z,22.27
2023-02-11T03:00:26.619Z,23.08
2023-02-11T03:03:16.033Z,23.13
2023-02-11T03:06:03.406Z,22.58
2023-02-11T03:08:57.041Z,23.23
2023-02-11T03:11:25.346Z,23.42
2023-02-11T03:13:53.987Z,23.10
2023-02-11T03:16:25.650Z,23.77
2023-02-11T03:19:18.113Z,24.02
2023-02-11T03:21:46.411Z,23.58
2023-02-11T03:24:19.439Z,22.58
2023-02-11T03:26:54.852Z,22.40
2023-02-11T03:29:33.448Z,23.08
2023-02-11T03:32:25.642Z,23.02
2023-02-11T03:35:08.882Z,22.58
2023-02-11T03:37:41.106Z,22.85
2023-02-11T03:40:13.359Z,22.45
2023-02-11T03:42:53.123Z,23.15
2023-02-11T03:45:22.565Z,23.20
2023-02-11T03:47:54.525Z,23.48
2023-02-11T03:50:22.180Z,21.48
2023-02-11T03:52:50.296Z,23.80
2023-02-11T03:55:19.157Z,21.65
2023-02-11T03:57:46.429Z,22.38
2023-02-11T04:00:14.511Z,22.55
2023-02-11T04:02:42.046Z,22.08
2023-02-11T04:05:10.198Z,21.30
2023-02-11T04:07:36.778Z,20.85
2023-02-11T04:10:03.924Z,22.15
2023-02-11T04:12:30.532Z,21.15
2023-02-11T04:14:57.080Z,23.10
2023-02-11T04:17:23.860Z,22.90
2023-02-11T04:19:50.382Z,22.00
2023-02-11T04:22:16.992Z,22.13
2023-02-11T04:24:44.275Z,21.25
2023-02-11T04:27:10.927Z,20.95
2023-02-11T04:29:37.716Z,21.58
2023-02-11T04:32:04.521Z,22.17
2023-02-11T04:34:31.341Z,21.20
2023-02-11T04:36:57.992Z,21.60
2023-02-11T04:39:24.631Z,21.30
2023-02-11T04:41:51.378Z,21.05
2023-02-11T04:44:17.963Z,20.38
2023-02-11T04:46:45.106Z,21.90
2023-02-11T04:49:16.173Z,21.90
2023-02-11T04:51:46.515Z,21.30
2023-02-11T04:54:14.788Z,20.67
2023-02-11T04:56:41.489Z,19.88
2023-02-11T04:59:08.172Z,20.83
2023-02-11T05:01:35.160Z,20.23
2023-02-11T05:04:01.818Z,20.88
2023-02-11T05:06:28.467Z,19.75
2023-02-11T05:08:55.039Z,20.55
2023-02-11T05:11:23.885Z,20.92
2023-02-11T05:13:50.829Z,19.30
2023-02-11T05:16:18.126Z,21.17
2023-02-11T05:18:45.393Z,20.83
2023-02-11T05:21:17.534Z,20.20
2023-02-11T05:23:45.400Z,20.95
2023-02-11T05:26:12.824Z,20.70
2023-02-11T05:28:41.250Z,20.85
2023-02-11T05:31:08.071Z,19.83
2023-02-11T05:33:34.720Z,21.27
2023-02-11T05:36:03.344Z,20.95
2023-02-11T05:38:29.915Z,20.10
2023-02-11T05:40:56.654Z,19.60
2023-02-11T05:43:23.280Z,20.48
2023-02-11T05:45:50.386Z,20.23
2023-02-11T05:48:17.905Z,20.48
2023-02-11T05:50:45.094Z,19.77
2023-02-11T05:53:11.959Z,21.08
2023-02-11T05:55:38.790Z,20.17
2023-02-11T05:58:08.022Z,19.13
2023-02-11T06:00:35.284Z,20.05
2023-02-11T06:03:01.920Z,20.05
2023-02-11T06:05:28.503Z,19.00
2023-02-11T06:07:55.144Z,19.48
2023-02-11T06:10:22.028Z,20.10
2023-02-11T06:12:48.713Z,19.63
2023-02-11T06:15:15.360Z,18.92
2023-02-11T06:17:41.961Z,19.55
2023-02-11T06:20:10.651Z,19.55
2023-02-11T06:22:37.325Z,20.30
2023-02-11T06:25:04.485Z,19.60
2023-02-11T06:27:31.140Z,20.27
2023-02-11T06:29:57.863Z,20.00
2023-02-11T06:32:42.752Z,19.70
2023-02-11T06:35:11.923Z,19.00
2023-02-11T06:37:39.481Z,19.10
2023-02-11T06:40:06.482Z,20.02
2023-02-11T06:42:33.227Z,20.08
2023-02-11T06:45:00.227Z,20.92
2023-02-11T06:47:26.760Z,19.48
2023-02-11T06:49:53.492Z,19.73
2023-02-11T06:52:20.100Z,20.98
2023-02-11T06:54:46.727Z,18.45
2023-02-11T06:57:13.465Z,19.92
2023-02-11T06:59:40.047Z,20.35
2023-02-11T07:02:07.040Z,20.25
2023-02-11T07:04:33.664Z,19.13
2023-02-11T07:07:00.342Z,19.33
2023-02-11T07:09:27.018Z,20.23
2023-02-11T07:11:53.644Z,20.13
2023-02-11T07:14:20.237Z,19.95
2023-02-11T07:16:46.791Z,20.13
2023-02-11T07:19:13.556Z,19.85
2023-02-11T07:21:40.335Z,19.27
2023-02-11T07:24:10.929Z,19.25
2023-02-11T07:26:38.175Z,19.63
2023-02-11T07:29:05.021Z,20.45
2023-02-11T07:31:32.370Z,20.05
2023-02-11T07:34:01.205Z,21.63
2023-02-11T07:36:29.537Z,19.58
2023-02-11T07:38:56.121Z,20.48
2023-02-11T07:41:24.154Z,21.65
2023-02-11T07:43:51.607Z,20.02
2023-02-11T07:46:24.577Z,20.02
2023-02-11T07:48:52.065Z,20.50
2023-02-11T07:51:22.317Z,19.75
2023-02-11T07:53:49.802Z,19.85
2023-02-11T07:56:17.802Z,21.38
2023-02-11T07:58:44.721Z,20.40
2023-02-11T08:01:14.803Z,20.25
2023-02-11T08:03:44.971Z,20.25
2023-02-11T08:06:14.747Z,20.45
2023-02-11T08:08:42.515Z,20.35
2023-02-11T08:11:12.178Z,19.98
2023-02-11T08:13:39.045Z,20.70
2023-02-11T08:16:06.585Z,21.60
2023-02-11T08:18:33.503Z,21.63
2023-02-11T08:21:08.593Z,22.08
2023-02-11T08:23:39.804Z,22.02
2023-02-11T08:26:08.713Z,22.13
2023-02-11T08:28:38.026Z,22.58
2023-02-11T08:31:09.793Z,22.38
2023-02-11T08:33:36.673Z,23.48
2023-02-11T08:36:12.759Z,23.13
2023-02-11T08:38:39.442Z,22.77
2023-02-11T08:41:06.969Z,23.23
2023-02-11T08:43:34.260Z,23.23
2023-02-11T08:46:02.323Z,23.73
2023-02-11T08:48:29.316Z,24.48
2023-02-11T08:50:56.663Z,24.38
2023-02-11T08:53:23.609Z,23.52
2023-02-11T08:55:55.307Z,24.30
2023-02-11T08:58:22.736Z,23.27
2023-02-11T09:00:50.248Z,23.20
2023-02-11T09:03:17.258Z,23.90
2023-02-11T09:05:47.848Z,24.10
2023-02-11T09:08:14.805Z,23.58
2023-02-11T09:10:41.970Z,21.88
2023-02-11T09:13:09.620Z,22.13
2023-02-11T09:15:36.175Z,24.05
2023-02-11T09:18:04.322Z,24.05
2023-02-11T09:20:31.549Z,22.77
2023-02-11T09:22:59.598Z,21.20
2023-02-11T09:25:26.688Z,22.35
2023-02-11T09:27:53.982Z,23.70
2023-02-11T09:30:21.103Z,22.38
2023-02-11T09:32:47.784Z,22.02
2023-02-11T09:35:14.615Z,22.88
2023-02-11T09:37:41.384Z,22.38
2023-02-11T09:40:08.984Z,19.85
2023-02-11T09:42:47.721Z,21.05
2023-02-11T09:45:26.657Z,20.63
2023-02-11T09:47:57.954Z,21.45
2023-02-11T09:50:32.607Z,20.35
2023-02-11T09:53:28.771Z,21.15
2023-02-11T09:55:59.757Z,20.85
2023-02-11T09:58:35.868Z,21.35
2023-02-11T10:01:21.990Z,19.77
2023-02-11T10:04:10.735Z,19.70
2023-02-11T10:06:45.729Z,20.08
2023-02-11T10:09:34.047Z,19.35
2023-02-11T10:12:22.501Z,19.98
2023-02-11T10:15:07.443Z,20.45
2023-02-11T10:18:01.209Z,20.98
2023-02-11T10:20:31.202Z,22.02
2023-02-11T10:23:01.344Z,23.65
2023-02-11T10:25:36.638Z,21.40
2023-02-11T10:28:15.951Z,24.58
2023-02-11T10:30:55.616Z,26.17
2023-02-11T10:33:34.380Z,26.98
2023-02-11T10:36:01.313Z,26.70
2023-02-11T10:38:28.273Z,27.20
2023-02-11T10:40:54.899Z,29.13
2023-02-11T10:43:26.762Z,28.85
2023-02-11T10:45:55.674Z,28.23
2023-02-11T10:48:42.731Z,28.52
2023-02-11T10:51:09.375Z,28.05
2023-02-11T10:53:35.987Z,27.80
2023-02-11T10:56:06.348Z,26.90
2023-02-11T10:58:44.746Z,26.60
2023-02-11T11:01:23.912Z,28.10
2023-02-11T11:03:53.038Z,26.17
2023-02-11T11:06:33.725Z,27.58
2023-02-11T11:09:01.165Z,25.35
2023-02-11T11:11:28.055Z,25.55
2023-02-11T11:14:01.502Z,23.55
2023-02-11T11:16:29.353Z,23.95
2023-02-11T11:19:08.337Z,22.73
2023-02-11T11:21:43.620Z,20.85
2023-02-11T11:24:20.420Z,20.85
2023-02-11T11:27:01.820Z,22.05
2023-02-11T11:29:37.093Z,19.10
2023-02-11T11:32:11.680Z,20.77
2023-02-11T11:34:42.107Z,21.75
2023-02-11T11:37:24.717Z,20.42
2023-02-11T11:39:57.354Z,20.23
2023-02-11T11:42:29.947Z,20.30
2023-02-11T11:45:19.668Z,19.77
2023-02-11T11:48:18.632Z,18.42
2023-02-11T11:50:50.472Z,19.27
2023-02-11T11:53:36.409Z,20.38
2023-02-11T11:56:09.430Z,21.20
2023-02-11T11:58:36.050Z,19.50
2023-02-11T12:01:41.521Z,20.10
2023-02-11T12:04:21.891Z,20.52
2023-02-11T12:07:00.616Z,19.33
2023-02-11T12:09:56.444Z,19.20
2023-02-11T12:12:26.768Z,19.80
2023-02-11T12:15:17.958Z,19.15
2023-02-11T12:17:47.453Z,19.05
2023-02-11T12:20:51.694Z,18.98
2023-02-11T12:23:40.448Z,18.33
2023-02-11T12:26:17.866Z,19.00
2023-02-11T12:32:08.029Z,18.35
2023-02-11T12:34:53.007Z,19.13
2023-02-11T12:37:31.787Z,18.02
2023-02-11T12:40:24.397Z,20.75
2023-02-11T12:43:18.361Z,17.83
2023-02-11T12:46:06.110Z,18.85
2023-02-11T12:48:58.122Z,18.20
2023-02-11T12:51:36.952Z,19.63
2023-02-11T12:54:35.862Z,19.20
2023-02-11T12:57:20.130Z,18.35
2023-02-11T13:00:11.611Z,20.08
2023-02-11T13:03:04.191Z,18.63
2023-02-11T13:05:45.093Z,18.33
2023-02-11T13:08:11.778Z,18.23
2023-02-11T13:10:41.391Z,19.08
2023-02-11T13:13:21.262Z,18.35
2023-02-11T13:16:24.176Z,19.25
2023-02-11T13:19:09.189Z,17.25
2023-02-11T13:21:50.284Z,18.30
2023-02-11T13:24:25.027Z,18.40
2023-02-11T13:27:15.356Z,18.55
2023-02-11T13:30:19.459Z,18.35
2023-02-11T13:32:55.684Z,18.25
2023-02-11T13:35:37.465Z,18.63
2023-02-11T13:38:21.641Z,17.75
2023-02-11T13:41:23.565Z,18.83
2023-02-11T13:44:03.032Z,18.13
2023-02-11T13:46:49.216Z,18.65
2023-02-11T13:49:23.478Z,18.42
2023-02-11T13:51:51.524Z,18.15
2023-02-11T13:54:47.972Z,18.10
2023-02-11T13:57:20.982Z,18.05
2023-02-11T13:59:47.681Z,19.15
2023-02-11T14:02:36.008Z,18.95
2023-02-11T14:05:24.336Z,17.95
2023-02-11T14:08:27.924Z,18.23
2023-02-11T14:11:14.741Z,17.20
2023-02-11T14:13:47.501Z,17.95
2023-02-11T14:16:31.668Z,17.98
2023-02-11T14:19:04.685Z,17.58
2023-02-11T14:21:38.957Z,17.73
2023-02-11T14:24:07.236Z,18.40
2023-02-11T14:26:55.775Z,17.10
2023-02-11T14:29:33.490Z,16.83
2023-02-11T14:32:26.009Z,16.95
2023-02-11T14:35:27.812Z,17.30
2023-02-11T14:38:12.205Z,17.98
2023-02-11T14:40:55.240Z,17.67
2023-02-11T14:43:29.659Z,18.10
2023-02-11T14:45:58.690Z,17.27
2023-02-11T14:48:31.494Z,16.80
2023-02-11T14:51:03.233Z,17.55
2023-02-11T14:53:32.660Z,17.15
2023-02-11T14:55:59.484Z,16.38
2023-02-11T14:58:31.408Z,16.73
2023-02-11T15:01:06.648Z,17.65
2023-02-11T15:03:39.809Z,16.85
2023-02-11T15:06:22.265Z,17.00
2023-02-11T15:08:52.633Z,15.75
2023-02-11T15:11:22.423Z,16.20
2023-02-11T15:13:50.402Z,16.70
2023-02-11T15:16:20.898Z,16.73
2023-02-11T15:18:51.802Z,16.85
2023-02-11T15:21:36.941Z,16.30
2023-02-11T15:24:20.485Z,16.95
2023-02-11T15:27:08.200Z,17.48
2023-02-11T15:29:38.344Z,15.98
2023-02-11T15:32:17.210Z,15.80
2023-02-11T15:34:45.162Z,16.02
2023-02-11T15:37:21.069Z,16.63
2023-02-11T15:39:47.866Z,16.63
2023-02-11T15:42:23.253Z,15.93
2023-02-11T15:45:08.616Z,15.80
2023-02-11T15:47:35.678Z,16.30
2023-02-11T15:50:02.653Z,17.48
2023-02-11T15:52:29.672Z,16.75
2023-02-11T15:55:00.736Z,17.25
2023-02-11T15:57:27.726Z,17.67
2023-02-11T15:59:56.330Z,16.92
2023-02-11T16:02:36.725Z,16.85
2023-02-11T16:05:08.451Z,17.63
2023-02-11T16:07:40.866Z,18.30
2023-02-11T16:10:32.251Z,17.80
2023-02-11T16:13:07.835Z,17.83
2023-02-11T16:15:34.330Z,17.08
2023-02-11T16:18:03.987Z,18.08
2023-02-11T16:20:30.991Z,17.08
2023-02-11T16:22:57.848Z,17.77
2023-02-11T16:25:24.546Z,17.65
2023-02-11T16:27:54.690Z,17.92
2023-02-11T16:30:28.969Z,16.92
2023-02-11T16:32:55.846Z,17.73
2023-02-11T16:35:22.513Z,16.27
2023-02-11T16:37:49.068Z,17.00
2023-02-11T16:40:16.454Z,17.48
2023-02-11T16:42:42.987Z,16.90
2023-02-11T16:45:09.850Z,16.98
2023-02-11T16:47:40.917Z,16.55
2023-02-11T16:50:18.987Z,17.17
2023-02-11T16:52:46.383Z,18.08
2023-02-11T16:55:13.388Z,16.75
2023-02-11T16:57:40.356Z,18.35
2023-02-11T17:00:08.025Z,18.02
2023-02-11T17:02:37.037Z,18.48
2023-02-11T17:05:12.260Z,17.92
2023-02-11T17:07:38.857Z,17.77
2023-02-11T17:10:14.210Z,18.20
2023-02-11T17:12:40.788Z,18.33
2023-02-11T17:15:07.759Z,17.38
2023-02-11T17:17:34.409Z,17.38
2023-02-11T17:20:01.127Z,17.80
2023-02-11T17:22:27.696Z,18.95
2023-02-11T17:24:57.100Z,17.73
2023-02-11T17:27:23.715Z,17.40
2023-02-11T17:29:50.367Z,16.95
2023-02-11T17:32:17.043Z,16.13
2023-02-11T17:34:43.804Z,17.08
2023-02-11T17:37:10.412Z,16.83
2023-02-11T17:39:38.612Z,16.95
2023-02-11T17:42:06.487Z,18.33
2023-02-11T17:44:33.778Z,19.08
2023-02-11T17:47:00.543Z,19.13
2023-02-11T17:49:27.667Z,19.17
2023-02-11T17:51:54.368Z,19.50
2023-02-11T17:54:21.371Z,18.80
2023-02-11T17:56:50.762Z,17.58
2023-02-11T17:59:17.694Z,17.45
2023-02-11T18:01:44.468Z,18.40
2023-02-11T18:04:15.013Z,18.13
2023-02-11T18:06:42.729Z,18.33
2023-02-11T18:09:09.754Z,17.52
2023-02-11T18:11:37.665Z,18.55
2023-02-11T18:14:07.729Z,17.23
2023-02-11T18:16:36.657Z,17.73
2023-02-11T18:19:04.114Z,18.45
2023-02-11T18:21:30.734Z,18.30
2023-02-11T18:23:57.890Z,17.70
2023-02-11T18:26:28.229Z,17.95
2023-02-11T18:28:57.960Z,16.95
2023-02-11T18:31:26.408Z,17.38
2023-02-11T18:33:53.282Z,18.98
2023-02-11T18:36:21.221Z,17.92
2023-02-11T18:38:48.020Z,18.30
2023-02-11T18:41:14.701Z,18.95
2023-02-11T18:43:41.292Z,19.33
2023-02-11T18:46:11.098Z,20.42
2023-02-11T18:48:38.524Z,19.67
2023-02-11T18:51:10.132Z,21.17
2023-02-11T18:53:37.099Z,19.83
2023-02-11T18:56:13.043Z,21.55
2023-02-11T18:58:40.147Z,20.73
2023-02-11T19:01:22.957Z,22.30
2023-02-11T19:03:50.448Z,22.98
2023-02-11T19:06:26.444Z,23.60
2023-02-11T19:08:59.915Z,22.63
2023-02-11T19:11:45.727Z,23.45
2023-02-11T19:14:14.220Z,23.08
2023-02-11T19:16:42.759Z,23.92
2023-02-11T19:19:09.679Z,23.65
2023-02-11T19:21:36.660Z,23.27
2023-02-11T19:24:07.729Z,23.45
2023-02-11T19:26:34.808Z,26.48
2023-02-11T19:29:01.855Z,26.30
2023-02-11T19:31:32.275Z,25.83
2023-02-11T19:33:59.748Z,26.17
2023-02-11T19:36:26.428Z,27.42
2023-02-11T19:38:53.151Z,26.35
2023-02-11T19:41:22.242Z,28.55
2023-02-11T19:43:56.652Z,27.45
2023-02-11T19:46:31.143Z,27.30
2023-02-11T19:49:00.028Z,26.98
2023-02-11T19:51:27.039Z,28.58
2023-02-11T19:53:54.280Z,28.90
2023-02-11T19:56:21.175Z,29.17
2023-02-11T19:58:47.953Z,29.00
2023-02-11T20:01:17.531Z,28.73
2023-02-11T20:03:44.355Z,28.85
2023-02-11T20:06:17.228Z,28.52
2023-02-11T20:08:44.390Z,28.00
2023-02-11T20:11:14.386Z,28.98
2023-02-11T20:13:41.989Z,27.73
2023-02-11T20:16:12.547Z,28.45
2023-02-11T20:18:40.511Z,28.73
2023-02-11T20:21:11.703Z,28.15
2023-02-11T20:23:40.266Z,28.63
2023-02-11T20:26:11.867Z,29.85
2023-02-11T20:28:38.497Z,30.05
2023-02-11T20:31:06.090Z,29.02
2023-02-11T20:33:33.476Z,28.58
2023-02-11T20:36:05.336Z,28.40
2023-02-11T20:38:32.197Z,27.50
2023-02-11T20:41:04.316Z,27.38
2023-02-11T20:43:31.370Z,27.02
2023-02-11T20:46:03.917Z,27.83
2023-02-11T20:48:31.088Z,27.20
2023-02-11T20:51:03.725Z,27.23
2023-02-11T20:53:30.562Z,26.98
2023-02-11T20:56:00.825Z,27.10
2023-02-11T20:58:27.389Z,26.90
2023-02-11T21:00:53.993Z,26.77
2023-02-11T21:03:20.895Z,26.30
2023-02-11T21:05:47.477Z,26.27
2023-02-11T21:08:14.066Z,27.50
2023-02-11T21:10:40.638Z,26.20
2023-02-11T21:13:07.179Z,26.30
2023-02-11T21:15:33.789Z,26.85
2023-02-11T21:18:00.614Z,27.17
2023-02-11T21:20:27.233Z,25.98
2023-02-11T21:22:53.818Z,26.75
2023-02-11T21:25:21.765Z,27.52
2023-02-11T21:27:48.398Z,26.65
2023-02-11T21:30:15.021Z,27.05
2023-02-11T21:32:41.711Z,27.40
2023-02-11T21:35:08.717Z,28.42
2023-02-11T21:37:35.340Z,27.58
2023-02-11T21:40:02.198Z,27.73
2023-02-11T21:42:28.821Z,28.35
2023-02-11T21:44:55.356Z,28.20
2023-02-11T21:47:21.947Z,26.83
2023-02-11T21:49:48.523Z,28.25
2023-02-11T21:52:15.100Z,28.85
2023-02-11T21:54:42.116Z,29.27
2023-02-11T21:57:08.735Z,27.95
2023-02-11T21:59:35.394Z,28.13
2023-02-11T22:02:02.318Z,27.98
2023-02-11T22:04:28.970Z,26.60
2023-02-11T22:06:55.613Z,28.95
2023-02-11T22:09:22.397Z,29.75
2023-02-11T22:11:49.667Z,28.77
2023-02-11T22:14:17.073Z,27.95
2023-02-11T22:16:47.567Z,28.20
2023-02-11T22:19:14.820Z,28.83
2023-02-11T22:21:43.297Z,27.23
2023-02-11T22:24:10.144Z,28.92
2023-02-11T22:26:36.839Z,29.90
2023-02-11T22:29:03.687Z,29.42
2023-02-11T22:31:32.924Z,27.38
2023-02-11T22:34:00.235Z,28.20
2023-02-11T22:36:29.312Z,27.30
2023-02-11T22:38:56.520Z,28.60
2023-02-11T22:41:23.490Z,29.42
2023-02-11T22:43:52.958Z,29.17
2023-02-11T22:46:20.178Z,27.77
2023-02-11T22:48:47.855Z,29.38
2023-02-11T22:51:17.941Z,28.92
2023-02-11T22:53:44.840Z,29.23
2023-02-11T22:56:15.592Z,28.63
2023-02-11T22:58:42.966Z,29.45
2023-02-11T23:01:10.384Z,29.42
2023-02-11T23:03:37.124Z,30.20
2023-02-11T23:06:03.946Z,29.85
2023-02-11T23:08:31.676Z,29.63
2023-02-11T23:11:06.936Z,28.98
2023-02-11T23:13:35.882Z,29.05
2023-02-11T23:16:08.035Z,29.40
2023-02-11T23:18:36.463Z,28.23
2023-02-11T23:21:05.780Z,29.83
2023-02-11T23:23:33.129Z,28.70
2023-02-11T23:26:00.058Z,28.70
2023-02-11T23:28:26.977Z,28.98
2023-02-11T23:30:53.721Z,30.20
2023-02-11T23:33:21.195Z,28.85
2023-02-11T23:35:48.026Z,29.40
2023-02-11T23:38:14.682Z,28.13
2023-02-11T23:40:42.237Z,29.25
2023-02-11T23:43:09.135Z,29.88
2023-02-11T23:45:35.691Z,27.85
2023-02-11T23:48:02.469Z,27.77
2023-02-11T23:50:29.066Z,29.58
2023-02-11T23:52:55.690Z,28.40
2023-02-11T23:55:22.342Z,28.45
2023-02-11T23:57:48.911Z,27.92
